createdAt,value
2019-02-07T00:00:30.841Z,2.10
2019-02-07T00:02:35.121Z,2.00
2019-02-07T00:04:38.145Z,2.00
2019-02-07T00:06:41.065Z,2.00
2019-02-07T00:08:44.319Z,2.00
2019-02-07T00:10:47.239Z,2.00
2019-02-07T00:12:50.161Z,2.00
2019-02-07T00:14:53.891Z,2.00
2019-02-07T00:16:56.858Z,2.00
2019-02-07T00:18:59.773Z,2.00
2019-02-07T00:21:02.838Z,2.00
2019-02-07T00:23:05.758Z,2.00
2019-02-07T00:25:08.792Z,2.00
2019-02-07T00:27:12.606Z,2.10
2019-02-07T00:29:15.526Z,2.00
2019-02-07T00:31:18.455Z,2.10
2019-02-07T00:33:22.769Z,2.10
2019-02-07T00:35:25.706Z,2.00
2019-02-07T00:37:28.735Z,2.00
2019-02-07T00:39:32.462Z,2.10
2019-02-07T00:41:35.398Z,2.00
2019-02-07T00:43:39.104Z,2.00
2019-02-07T00:45:42.920Z,2.00
2019-02-07T00:47:46.593Z,2.00
2019-02-07T00:49:49.514Z,2.00
2019-02-07T00:51:52.474Z,2.00
2019-02-07T00:53:56.158Z,1.90
2019-02-07T00:55:59.082Z,1.90
2019-02-07T00:58:02.151Z,1.90
2019-02-07T01:00:10.663Z,1.90
2019-02-07T01:02:13.658Z,1.90
2019-02-07T01:04:16.629Z,1.90
2019-02-07T01:06:19.550Z,1.90
2019-02-07T01:08:22.510Z,1.90
2019-02-07T01:10:26.229Z,1.80
2019-02-07T01:12:29.145Z,1.90
2019-02-07T01:14:32.158Z,1.90
2019-02-07T01:16:35.109Z,1.90
2019-02-07T01:18:38.124Z,1.90
2019-02-07T01:20:41.936Z,2.00
2019-02-07T01:22:45.732Z,2.00
2019-02-07T01:24:48.666Z,1.90
2019-02-07T01:26:51.694Z,2.00
2019-02-07T01:28:55.412Z,2.00
2019-02-07T01:30:58.333Z,2.00
2019-02-07T01:33:01.362Z,2.00
2019-02-07T01:35:05.162Z,2.00
2019-02-07T01:37:08.838Z,2.00
2019-02-07T01:39:11.770Z,2.00
2019-02-07T01:41:14.725Z,2.00
2019-02-07T01:43:18.414Z,2.00
2019-02-07T01:45:22.961Z,2.00
2019-02-07T01:47:25.962Z,2.00
2019-02-07T01:49:28.882Z,2.00
2019-02-07T01:51:31.895Z,2.00
2019-02-07T01:53:35.696Z,2.00
2019-02-07T01:55:39.378Z,2.00
2019-02-07T01:57:42.300Z,2.00
2019-02-07T01:59:45.250Z,2.10
2019-02-07T02:01:48.934Z,2.10
2019-02-07T02:03:51.859Z,2.00
2019-02-07T02:05:55.253Z,2.10
2019-02-07T02:07:58.189Z,2.10
2019-02-07T02:10:01.110Z,2.10
2019-02-07T02:12:04.284Z,2.10
2019-02-07T02:14:07.971Z,2.20
2019-02-07T02:16:11.658Z,2.20
2019-02-07T02:18:14.599Z,2.10
2019-02-07T02:20:18.325Z,2.20
2019-02-07T02:22:21.244Z,2.10
2019-02-07T02:24:25.049Z,2.10
2019-02-07T02:26:28.135Z,2.00
2019-02-07T02:28:31.810Z,2.00
2019-02-07T02:30:34.758Z,2.00
2019-02-07T02:32:37.806Z,2.00
2019-02-07T02:34:41.365Z,2.00
2019-02-07T02:36:44.790Z,2.00
2019-02-07T02:38:48.557Z,2.00
2019-02-07T02:40:52.174Z,2.00
2019-02-07T02:42:56.002Z,2.00
2019-02-07T02:44:58.923Z,1.90
2019-02-07T02:47:01.837Z,2.00
2019-02-07T02:49:05.541Z,2.00
2019-02-07T02:51:09.221Z,2.00
2019-02-07T02:53:12.138Z,2.00
2019-02-07T02:55:30.943Z,2.00
2019-02-07T02:57:33.849Z,2.10
2019-02-07T02:59:37.591Z,2.00
2019-02-07T03:01:43.074Z,2.10
2019-02-07T03:03:48.472Z,2.10
2019-02-07T03:05:56.882Z,2.10
2019-02-07T03:08:18.418Z,2.10
2019-02-07T03:10:34.249Z,2.10
2019-02-07T03:12:55.574Z,2.10
2019-02-07T03:15:15.312Z,2.10
2019-02-07T03:17:22.110Z,2.10
2019-02-07T03:19:28.341Z,2.10
2019-02-07T03:21:31.302Z,2.10
2019-02-07T03:23:40.292Z,2.10
2019-02-07T03:25:48.446Z,2.10
2019-02-07T03:27:56.089Z,2.10
2019-02-07T03:30:14.055Z,2.10
2019-02-07T03:32:22.414Z,2.10
2019-02-07T03:34:30.911Z,2.10
2019-02-07T03:36:48.705Z,2.20
2019-02-07T03:38:55.530Z,2.20
2019-02-07T03:41:05.101Z,2.20
2019-02-07T03:43:08.976Z,2.20
2019-02-07T03:45:11.922Z,2.20
2019-02-07T03:47:16.321Z,2.20
2019-02-07T03:49:19.786Z,2.20
2019-02-07T03:51:24.136Z,2.20
2019-02-07T03:53:32.812Z,2.10
2019-02-07T03:55:54.433Z,2.10
2019-02-07T03:58:00.037Z,2.00
2019-02-07T04:00:03.471Z,2.00
2019-02-07T04:02:12.841Z,2.00
2019-02-07T04:04:26.708Z,2.00
2019-02-07T04:06:31.469Z,2.00
2019-02-07T04:08:50.056Z,2.00
2019-02-07T04:11:07.861Z,2.00
2019-02-07T04:13:10.776Z,2.00
2019-02-07T04:15:18.369Z,2.00
2019-02-07T04:17:27.857Z,2.00
2019-02-07T04:19:37.158Z,2.10
2019-02-07T04:21:44.808Z,2.00
2019-02-07T04:23:50.556Z,2.10
2019-02-07T04:25:57.960Z,2.10
2019-02-07T04:28:20.148Z,2.10
2019-02-07T04:30:28.915Z,2.20
2019-02-07T04:32:37.549Z,2.20
2019-02-07T04:34:43.105Z,2.20
2019-02-07T04:37:07.717Z,2.20
2019-02-07T04:39:11.518Z,2.30
2019-02-07T04:41:31.005Z,2.30
2019-02-07T04:43:49.626Z,2.30
2019-02-07T04:45:54.157Z,2.30
2019-02-07T04:48:12.810Z,2.40
2019-02-07T04:50:36.577Z,2.40
2019-02-07T04:52:54.405Z,2.50
2019-02-07T04:55:15.315Z,2.50
2019-02-07T04:57:18.817Z,2.50
2019-02-07T04:59:24.232Z,2.60
2019-02-07T05:01:33.560Z,2.70
2019-02-07T05:03:39.293Z,2.70
2019-02-07T05:05:45.146Z,2.70
2019-02-07T05:07:50.527Z,2.80
2019-02-07T05:10:08.330Z,2.80
2019-02-07T05:12:14.837Z,2.90
2019-02-07T05:14:35.545Z,2.90
2019-02-07T05:16:43.780Z,3.00
2019-02-07T05:18:47.488Z,3.00
2019-02-07T05:20:53.294Z,3.10
2019-02-07T05:22:58.814Z,3.10
2019-02-07T05:25:03.429Z,3.20
2019-02-07T05:27:11.943Z,3.20
2019-02-07T05:29:29.820Z,3.30
2019-02-07T05:31:32.741Z,3.30
2019-02-07T05:33:40.447Z,3.40
2019-02-07T05:35:58.586Z,3.40
2019-02-07T05:38:16.388Z,3.40
2019-02-07T05:40:19.307Z,3.50
2019-02-07T05:42:27.842Z,3.50
2019-02-07T05:44:47.425Z,3.60
2019-02-07T05:46:52.925Z,3.60
2019-02-07T05:49:07.501Z,3.60
2019-02-07T05:51:10.410Z,3.60
2019-02-07T05:53:32.167Z,3.70
2019-02-07T05:55:55.933Z,3.70
2019-02-07T05:58:14.518Z,3.80
2019-02-07T06:00:20.539Z,3.70
2019-02-07T06:02:26.870Z,3.80
2019-02-07T06:04:45.778Z,3.80
2019-02-07T06:06:54.306Z,3.90
2019-02-07T06:09:00.701Z,3.90
2019-02-07T06:11:18.504Z,3.90
2019-02-07T06:13:24.032Z,3.90
2019-02-07T06:15:32.741Z,3.90
2019-02-07T06:17:46.357Z,4.00
2019-02-07T06:19:52.600Z,4.00
2019-02-07T06:21:59.081Z,4.00
2019-02-07T06:24:12.902Z,4.00
2019-02-07T06:26:21.529Z,4.10
2019-02-07T06:28:38.309Z,4.10
2019-02-07T06:30:41.254Z,4.10
2019-02-07T06:32:50.064Z,4.10
2019-02-07T06:34:58.680Z,4.10
2019-02-07T06:37:01.614Z,4.10
2019-02-07T06:39:05.410Z,4.20
2019-02-07T06:41:09.544Z,4.20
2019-02-07T06:43:15.930Z,4.30
2019-02-07T06:45:34.512Z,4.30
2019-02-07T06:47:55.320Z,4.30
2019-02-07T06:49:58.317Z,4.30
2019-02-07T06:52:11.963Z,4.40
2019-02-07T06:54:17.438Z,4.40
2019-02-07T06:56:38.034Z,4.40
2019-02-07T06:58:43.646Z,4.40
2019-02-07T07:01:04.482Z,4.40
2019-02-07T07:03:13.008Z,4.50
2019-02-07T07:05:31.589Z,4.50
2019-02-07T07:07:40.141Z,4.50
2019-02-07T07:09:43.822Z,4.60
2019-02-07T07:12:03.631Z,4.60
2019-02-07T07:14:10.013Z,4.60
2019-02-07T07:16:15.457Z,4.60
2019-02-07T07:18:40.141Z,4.60
2019-02-07T07:20:59.553Z,4.60
2019-02-07T07:23:19.430Z,4.60
2019-02-07T07:25:39.023Z,4.70
2019-02-07T07:27:42.698Z,4.70
2019-02-07T07:29:56.489Z,4.70
2019-02-07T07:32:12.113Z,4.70
2019-02-07T07:34:20.980Z,4.70
2019-02-07T07:36:37.441Z,4.80
2019-02-07T07:38:55.266Z,4.80
2019-02-07T07:41:00.145Z,4.90
2019-02-07T07:43:08.101Z,4.90
2019-02-07T07:45:21.800Z,4.90
2019-02-07T07:47:39.707Z,4.90
2019-02-07T07:49:49.143Z,5.00
2019-02-07T07:52:03.863Z,5.00
2019-02-07T07:54:22.448Z,5.00
2019-02-07T07:56:32.087Z,5.10
2019-02-07T07:58:40.647Z,5.10
2019-02-07T08:00:49.247Z,5.10
2019-02-07T08:02:58.884Z,5.10
2019-02-07T08:05:04.397Z,5.10
2019-02-07T08:07:22.974Z,5.20
2019-02-07T08:09:29.592Z,5.20
2019-02-07T08:11:36.097Z,5.20
2019-02-07T08:13:44.661Z,5.20
2019-02-07T08:15:53.168Z,5.30
2019-02-07T08:17:56.087Z,5.30
2019-02-07T08:19:59.764Z,5.30
2019-02-07T08:22:10.267Z,5.30
2019-02-07T08:24:17.898Z,5.30
2019-02-07T08:26:24.745Z,5.30
2019-02-07T08:28:37.600Z,5.40
2019-02-07T08:30:46.344Z,5.40
2019-02-07T08:32:52.906Z,5.50
2019-02-07T08:35:12.483Z,5.50
2019-02-07T08:37:34.973Z,5.50
2019-02-07T08:39:41.527Z,5.50
2019-02-07T08:41:46.318Z,5.50
2019-02-07T08:43:52.942Z,5.50
2019-02-07T08:46:10.739Z,5.50
2019-02-07T08:48:30.491Z,5.60
2019-02-07T08:50:38.845Z,5.60
2019-02-07T08:53:02.528Z,5.60
2019-02-07T08:55:11.011Z,5.60
2019-02-07T08:57:17.844Z,5.60
2019-02-07T08:59:25.516Z,5.60
2019-02-07T09:01:34.265Z,5.70
2019-02-07T09:03:38.988Z,5.70
2019-02-07T09:05:48.276Z,5.70
2019-02-07T09:08:01.953Z,5.70
2019-02-07T09:10:23.998Z,5.80
2019-02-07T09:12:42.429Z,5.80
2019-02-07T09:15:02.829Z,5.80
2019-02-07T09:17:08.670Z,5.80
2019-02-07T09:19:25.100Z,5.80
2019-02-07T09:21:33.801Z,5.80
2019-02-07T09:23:40.673Z,5.80
2019-02-07T09:25:44.149Z,5.90
2019-02-07T09:28:06.685Z,5.90
2019-02-07T09:30:16.693Z,5.90
2019-02-07T09:32:35.398Z,5.90
2019-02-07T09:34:54.869Z,5.90
2019-02-07T09:37:03.429Z,5.90
2019-02-07T09:39:12.024Z,5.90
2019-02-07T09:41:15.762Z,5.90
2019-02-07T09:43:39.285Z,6.00
2019-02-07T09:45:57.936Z,6.00
2019-02-07T09:48:21.827Z,6.00
2019-02-07T09:50:24.975Z,6.00
2019-02-07T09:52:46.681Z,6.00
2019-02-07T09:54:52.761Z,6.00
2019-02-07T09:56:57.657Z,6.00
2019-02-07T09:59:04.653Z,6.00
2019-02-07T10:01:10.245Z,6.00
2019-02-07T10:03:13.732Z,6.00
2019-02-07T10:05:37.049Z,6.00
2019-02-07T10:07:46.397Z,6.00
2019-02-07T10:10:08.104Z,6.00
2019-02-07T10:12:21.804Z,6.00
2019-02-07T10:14:39.609Z,6.00
2019-02-07T10:16:54.317Z,6.00
2019-02-07T10:18:58.062Z,6.00
2019-02-07T10:21:00.973Z,6.00
2019-02-07T10:23:09.590Z,6.00
2019-02-07T10:25:17.992Z,6.00
2019-02-07T10:27:26.649Z,6.00
2019-02-07T10:29:45.204Z,6.00
2019-02-07T10:32:03.235Z,6.00
2019-02-07T10:34:06.905Z,6.10
2019-02-07T10:36:12.675Z,6.00
2019-02-07T10:38:19.068Z,6.10
2019-02-07T10:40:24.688Z,6.10
2019-02-07T10:42:34.912Z,6.10
2019-02-07T10:44:39.563Z,6.10
2019-02-07T10:46:43.274Z,6.20
2019-02-07T10:49:06.671Z,6.20
2019-02-07T10:51:27.481Z,6.20
2019-02-07T10:53:34.188Z,6.20
2019-02-07T10:55:37.647Z,6.20
2019-02-07T10:57:50.526Z,6.20
2019-02-07T10:59:56.215Z,6.20
2019-02-07T11:02:00.980Z,6.30
2019-02-07T11:04:09.510Z,6.30
2019-02-07T11:06:12.993Z,6.30
2019-02-07T11:08:15.922Z,6.40
2019-02-07T11:10:35.660Z,6.40
2019-02-07T11:12:43.016Z,6.40
2019-02-07T11:14:49.598Z,6.40
2019-02-07T11:16:53.094Z,6.40
2019-02-07T11:18:57.681Z,6.50
2019-02-07T11:21:05.232Z,6.50
2019-02-07T11:23:25.291Z,6.50
2019-02-07T11:25:46.065Z,6.50
2019-02-07T11:27:50.794Z,6.50
2019-02-07T11:30:08.597Z,6.60
2019-02-07T11:32:14.129Z,6.60
2019-02-07T11:34:21.957Z,6.60
2019-02-07T11:36:30.703Z,6.70
2019-02-07T11:38:35.128Z,6.70
2019-02-07T11:40:38.050Z,6.70
2019-02-07T11:42:44.259Z,6.70
2019-02-07T11:44:50.765Z,6.80
2019-02-07T11:47:05.301Z,6.80
2019-02-07T11:49:07.084Z,6.90
2019-02-07T11:51:21.801Z,6.90
2019-02-07T11:53:27.502Z,6.90
2019-02-07T11:55:32.941Z,6.90
2019-02-07T11:57:36.305Z,7.00
2019-02-07T11:59:41.770Z,7.00
2019-02-07T12:02:09.141Z,7.00
2019-02-07T12:04:21.397Z,7.10
2019-02-07T12:06:42.133Z,7.10
2019-02-07T12:09:03.741Z,7.10
2019-02-07T12:11:20.457Z,7.10
2019-02-07T12:13:23.368Z,7.10
2019-02-07T12:15:27.161Z,7.10
2019-02-07T12:17:37.529Z,7.20
2019-02-07T12:19:46.742Z,7.20
2019-02-07T12:22:04.893Z,7.20
2019-02-07T12:24:23.545Z,7.20
2019-02-07T12:26:32.878Z,7.30
2019-02-07T12:28:37.150Z,7.30
2019-02-07T12:30:45.794Z,7.30
2019-02-07T12:32:51.389Z,7.30
2019-02-07T12:35:04.674Z,7.30
2019-02-07T12:37:22.478Z,7.30
2019-02-07T12:39:31.068Z,7.30
2019-02-07T12:41:34.105Z,7.40
2019-02-07T12:43:53.857Z,7.40
2019-02-07T12:46:08.549Z,7.40
2019-02-07T12:48:25.593Z,7.40
2019-02-07T12:50:34.477Z,7.40
2019-02-07T12:52:42.993Z,7.50
2019-02-07T12:54:52.472Z,7.50
2019-02-07T12:57:10.289Z,7.40
2019-02-07T12:59:33.086Z,7.50
2019-02-07T13:01:36.491Z,7.40
2019-02-07T13:03:45.002Z,7.40
2019-02-07T13:06:03.583Z,7.50
2019-02-07T13:08:12.153Z,7.40
2019-02-07T13:10:15.834Z,7.50
2019-02-07T13:12:36.668Z,7.50
2019-02-07T13:14:46.015Z,7.50
2019-02-07T13:17:07.741Z,7.50
2019-02-07T13:19:14.455Z,7.50
2019-02-07T13:21:17.370Z,7.50
2019-02-07T13:23:38.205Z,7.50
2019-02-07T13:25:51.040Z,7.60
2019-02-07T13:27:59.673Z,7.60
2019-02-07T13:30:09.977Z,7.70
2019-02-07T13:32:18.223Z,7.70
2019-02-07T13:34:27.249Z,7.70
2019-02-07T13:36:31.929Z,7.70
2019-02-07T13:38:49.733Z,7.70
2019-02-07T13:40:58.199Z,7.80
2019-02-07T13:43:15.994Z,7.80
2019-02-07T13:45:27.637Z,7.80
2019-02-07T13:47:30.994Z,7.80
2019-02-07T13:49:38.733Z,7.90
2019-02-07T13:51:45.222Z,7.90
2019-02-07T13:53:50.381Z,7.90
2019-02-07T13:55:53.415Z,7.90
2019-02-07T13:58:01.952Z,8.00
2019-02-07T14:00:16.572Z,8.00
2019-02-07T14:02:19.950Z,8.00
2019-02-07T14:04:28.425Z,8.10
2019-02-07T14:06:35.288Z,8.10
2019-02-07T14:08:40.115Z,8.10
2019-02-07T14:10:44.354Z,8.10
2019-02-07T14:13:02.314Z,8.10
2019-02-07T14:15:10.173Z,8.20
2019-02-07T14:17:13.112Z,8.20
2019-02-07T14:19:31.635Z,8.30
2019-02-07T14:21:40.163Z,8.30
2019-02-07T14:23:58.852Z,8.30
2019-02-07T14:26:22.475Z,8.40
2019-02-07T14:28:32.168Z,8.40
2019-02-07T14:30:53.841Z,8.40
2019-02-07T14:33:01.529Z,8.40
2019-02-07T14:35:05.184Z,8.40
2019-02-07T14:37:23.822Z,8.40
2019-02-07T14:39:27.998Z,8.40
2019-02-07T14:41:33.417Z,8.40
2019-02-07T14:43:38.116Z,8.50
2019-02-07T14:45:39.894Z,8.50
2019-02-07T14:47:42.833Z,8.50
2019-02-07T14:49:46.974Z,8.50
2019-02-07T14:51:49.880Z,8.50
2019-02-07T14:53:52.909Z,8.50
2019-02-07T14:55:56.612Z,8.60
2019-02-07T14:57:59.672Z,8.50
2019-02-07T15:00:03.465Z,8.50
2019-02-07T15:02:06.486Z,8.50
2019-02-07T15:04:09.420Z,8.50
2019-02-07T15:06:12.366Z,8.50
2019-02-07T15:08:15.561Z,8.50
2019-02-07T15:10:19.309Z,8.50
2019-02-07T15:12:23.012Z,8.50
2019-02-07T15:14:26.694Z,8.50
2019-02-07T15:16:29.628Z,8.50
2019-02-07T15:18:32.556Z,8.50
2019-02-07T15:20:35.477Z,8.50
2019-02-07T15:22:39.181Z,8.50
2019-02-07T15:24:42.109Z,8.50
2019-02-07T15:26:45.042Z,8.50
2019-02-07T15:28:48.009Z,8.50
2019-02-07T15:30:51.681Z,8.50
2019-02-07T15:32:56.149Z,8.50
2019-02-07T15:34:59.105Z,8.50
2019-02-07T15:37:02.065Z,8.50
2019-02-07T15:39:05.040Z,8.50
2019-02-07T15:41:07.951Z,8.50
2019-02-07T15:43:11.670Z,8.50
2019-02-07T15:45:15.353Z,8.50
2019-02-07T15:47:19.033Z,8.50
2019-02-07T15:49:22.381Z,8.50
2019-02-07T15:51:25.303Z,8.50
2019-02-07T15:53:28.328Z,8.50
2019-02-07T15:55:31.275Z,8.50
2019-02-07T15:57:34.185Z,8.50
2019-02-07T15:59:37.864Z,8.60
2019-02-07T16:01:41.692Z,8.60
2019-02-07T16:03:44.629Z,8.50
2019-02-07T16:05:47.682Z,8.60
2019-02-07T16:07:50.508Z,8.60
2019-02-07T16:09:54.208Z,8.60
2019-02-07T16:11:57.927Z,8.60
2019-02-07T16:14:01.605Z,8.60
2019-02-07T16:16:04.624Z,8.60
2019-02-07T16:18:07.561Z,8.60
2019-02-07T16:20:11.406Z,8.60
2019-02-07T16:22:15.092Z,8.60
2019-02-07T16:24:18.191Z,8.60
2019-02-07T16:26:21.885Z,8.60
2019-02-07T16:28:24.826Z,8.60
2019-02-07T16:30:30.483Z,8.60
2019-02-07T16:32:30.737Z,8.60
2019-02-07T16:34:33.669Z,8.60
2019-02-07T16:36:36.623Z,8.60
2019-02-07T16:38:39.549Z,8.60
2019-02-07T16:40:43.249Z,8.50
2019-02-07T16:42:46.211Z,8.50
2019-02-07T16:44:49.131Z,8.50
2019-02-07T16:46:54.490Z,8.50
2019-02-07T16:48:57.844Z,8.50
2019-02-07T16:51:00.729Z,8.50
2019-02-07T16:53:04.369Z,8.50
2019-02-07T16:55:07.285Z,8.40
2019-02-07T16:57:10.225Z,8.40
2019-02-07T16:59:13.165Z,8.40
2019-02-07T17:01:16.188Z,8.40
2019-02-07T17:03:19.860Z,8.40
2019-02-07T17:05:22.889Z,8.40
2019-02-07T17:07:25.856Z,8.40
2019-02-07T17:09:28.765Z,8.30
2019-02-07T17:11:31.734Z,8.30
2019-02-07T17:13:34.642Z,8.30
2019-02-07T17:15:37.547Z,8.30
2019-02-07T17:17:40.481Z,8.30
2019-02-07T17:19:43.422Z,8.30
2019-02-07T17:21:46.445Z,8.30
2019-02-07T17:23:49.365Z,8.30
2019-02-07T17:25:52.294Z,8.30
2019-02-07T17:27:55.488Z,8.20
2019-02-07T17:29:58.406Z,8.20
2019-02-07T17:32:01.325Z,8.20
2019-02-07T17:34:05.026Z,8.20
2019-02-07T17:36:07.969Z,8.20
2019-02-07T17:38:10.928Z,8.20
2019-02-07T17:40:15.381Z,8.20
2019-02-07T17:42:18.288Z,8.10
2019-02-07T17:44:22.109Z,8.10
2019-02-07T17:46:25.051Z,8.10
2019-02-07T17:48:28.778Z,8.10
2019-02-07T17:50:35.303Z,8.10
2019-02-07T17:52:38.217Z,8.10
2019-02-07T17:54:41.130Z,8.10
2019-02-07T17:56:45.024Z,8.10
2019-02-07T17:58:47.941Z,8.10
2019-02-07T18:00:59.380Z,8.10
2019-02-07T18:03:03.054Z,8.10
2019-02-07T18:05:05.994Z,8.00
2019-02-07T18:07:08.940Z,8.10
2019-02-07T18:09:12.629Z,8.00
2019-02-07T18:11:15.565Z,8.00
2019-02-07T18:13:18.485Z,8.00
2019-02-07T18:15:21.496Z,8.00
2019-02-07T18:17:25.217Z,8.00
2019-02-07T18:19:28.131Z,8.00
2019-02-07T18:21:34.372Z,8.00
2019-02-07T18:23:33.997Z,8.00
2019-02-07T18:25:36.909Z,8.00
2019-02-07T18:27:42.006Z,8.00
2019-02-07T18:29:43.537Z,8.00
2019-02-07T18:31:46.445Z,7.90
2019-02-07T18:33:49.401Z,7.90
2019-02-07T18:35:52.309Z,8.00
2019-02-07T18:37:55.221Z,7.90
2019-02-07T18:39:58.913Z,7.90
2019-02-07T18:42:02.589Z,7.90
2019-02-07T18:44:05.897Z,7.90
2019-02-07T18:46:08.828Z,7.90
2019-02-07T18:48:11.737Z,7.90
2019-02-07T18:50:21.031Z,7.90
2019-02-07T18:52:23.986Z,7.90
2019-02-07T18:54:27.698Z,7.90
2019-02-07T18:56:31.393Z,7.90
2019-02-07T18:58:35.078Z,7.90
2019-02-07T19:00:38.761Z,7.90
2019-02-07T19:02:43.907Z,7.90
2019-02-07T19:04:44.636Z,7.90
2019-02-07T19:06:48.317Z,7.90
2019-02-07T19:08:51.253Z,7.80
2019-02-07T19:10:54.178Z,7.80
2019-02-07T19:12:57.093Z,7.80
2019-02-07T19:15:00.804Z,7.80
2019-02-07T19:17:03.732Z,7.80
2019-02-07T19:19:06.690Z,7.80
2019-02-07T19:21:10.424Z,7.80
2019-02-07T19:23:13.355Z,7.80
2019-02-07T19:25:16.542Z,7.80
2019-02-07T19:27:19.458Z,7.80
2019-02-07T19:29:22.381Z,7.80
2019-02-07T19:31:25.321Z,7.80
2019-02-07T19:33:28.237Z,7.80
2019-02-07T19:35:31.154Z,7.80
2019-02-07T19:37:34.108Z,7.80
2019-02-07T19:39:37.803Z,7.80
2019-02-07T19:41:40.773Z,7.80
2019-02-07T19:43:45.582Z,7.80
2019-02-07T19:45:47.394Z,7.80
2019-02-07T19:47:51.104Z,7.80
2019-02-07T19:49:54.033Z,7.80
2019-02-07T19:52:07.731Z,7.70
2019-02-07T19:54:00.760Z,7.70
2019-02-07T19:56:03.689Z,7.70
2019-02-07T19:58:06.891Z,7.70
2019-02-07T20:00:11.333Z,7.70
2019-02-07T20:02:14.352Z,7.70
2019-02-07T20:04:17.297Z,7.70
2019-02-07T20:06:20.295Z,7.70
2019-02-07T20:08:23.581Z,7.70
2019-02-07T20:10:27.254Z,7.80
2019-02-07T20:12:31.676Z,7.70
2019-02-07T20:14:35.505Z,7.70
2019-02-07T20:16:38.453Z,7.70
2019-02-07T20:18:41.374Z,7.70
2019-02-07T20:20:44.318Z,7.70
2019-02-07T20:22:47.334Z,7.70
2019-02-07T20:24:50.268Z,7.80
2019-02-07T20:26:54.114Z,7.80
2019-02-07T20:28:57.801Z,7.80
2019-02-07T20:31:01.519Z,7.80
2019-02-07T20:33:05.333Z,7.80
2019-02-07T20:35:08.386Z,7.70
2019-02-07T20:37:12.314Z,7.80
2019-02-07T20:39:15.233Z,7.80
2019-02-07T20:41:18.148Z,7.80
2019-02-07T20:43:21.094Z,7.80
2019-02-07T20:45:24.849Z,7.80
2019-02-07T20:47:28.558Z,7.80
2019-02-07T20:49:32.056Z,7.80
2019-02-07T20:51:34.980Z,7.80
2019-02-07T20:53:37.988Z,7.80
2019-02-07T20:55:41.685Z,7.80
2019-02-07T20:57:44.703Z,7.70
2019-02-07T20:59:47.654Z,7.80
2019-02-07T21:01:51.368Z,7.80
2019-02-07T21:03:55.082Z,7.80
2019-02-07T21:05:59.212Z,7.80
2019-02-07T21:08:02.135Z,7.80
2019-02-07T21:10:05.724Z,7.80
2019-02-07T21:12:08.678Z,7.80
2019-02-07T21:14:11.745Z,7.80
2019-02-07T21:16:14.677Z,7.80
2019-02-07T21:18:18.258Z,7.80
2019-02-07T21:20:22.062Z,7.80
2019-02-07T21:22:25.006Z,7.80
2019-02-07T21:24:27.953Z,7.80
2019-02-07T21:26:31.676Z,7.80
2019-02-07T21:28:34.644Z,7.80
2019-02-07T21:30:37.786Z,7.80
2019-02-07T21:32:40.707Z,7.80
2019-02-07T21:34:45.125Z,7.90
2019-02-07T21:36:48.403Z,7.90
2019-02-07T21:38:51.329Z,7.90
2019-02-07T21:40:54.245Z,7.90
2019-02-07T21:42:57.180Z,7.90
2019-02-07T21:45:00.866Z,7.90
2019-02-07T21:47:04.557Z,8.00
2019-02-07T21:49:07.682Z,7.90
2019-02-07T21:51:10.597Z,8.00
2019-02-07T21:53:29.745Z,8.00
2019-02-07T23:02:53.974Z,7.90
2019-02-07T23:08:41.865Z,7.90
2019-02-07T23:18:42.866Z,7.80
2019-02-07T23:28:44.190Z,7.60
2019-02-07T23:38:44.352Z,7.40
